Time;durP1;ratioP1;P1;durP2;ratioP2;P2;SDS_P1;SDS_P2;PMS_P1;PMS_P2;Temp;Humidity;BMP_temperature;BMP_pressure;BME280_temperature;BME280_humidity;BME280_pressure;Samples;Min_cycle;Max_cycle;Signal;HPM_P1;HPM_P2
2021/04/02 00:01:17;;;;;;;2.97;1.38;;;;;;;;;;5068983;28;20044;-85
2021/04/02 00:03:43;;;;;;;6.20;1.38;;;;;;;;;;5052352;28;20037;-85
2021/04/02 00:06:10;;;;;;;4.03;1.48;;;;;;;;;;5068782;28;20090;-85
2021/04/02 00:08:36;;;;;;;6.35;1.42;;;;;;;;;;5068655;28;20115;-85
2021/04/02 00:11:06;;;;;;;5.53;1.40;;;;;;;;;;5052302;28;20129;-85
2021/04/02 00:13:35;;;;;;;8.35;1.63;;;;;;;;;;5053534;28;20041;-85
2021/04/02 00:16:01;;;;;;;3.95;2.03;;;;;;;;;;5053250;28;20426;-85
2021/04/02 00:18:27;;;;;;;4.93;1.35;;;;;;;;;;5053166;28;20551;-85
2021/04/02 00:20:53;;;;;;;5.43;1.73;;;;;;;;;;5051480;28;20124;-85
2021/04/02 00:23:22;;;;;;;5.55;1.48;;;;;;;;;;5052189;28;20131;-85
2021/04/02 00:25:48;;;;;;;5.82;1.35;;;;;;;;;;5068034;28;20110;-85
2021/04/02 00:28:14;;;;;;;3.85;1.35;;;;;;;;;;5068478;28;20044;-85
2021/04/02 00:30:41;;;;;;;3.72;1.00;;;;;;;;;;5051775;28;20037;-85
2021/04/02 00:33:07;;;;;;;4.60;1.27;;;;;;;;;;5068281;28;20072;-85
2021/04/02 00:35:34;;;;;;;6.78;1.35;;;;;;;;;;5068144;28;20045;-85
2021/04/02 00:38:00;;;;;;;3.80;1.50;;;;;;;;;;5051627;28;20044;-85
2021/04/02 00:40:27;;;;;;;5.80;1.38;;;;;;;;;;5068152;28;20044;-85
2021/04/02 00:42:53;;;;;;;7.60;1.58;;;;;;;;;;5068124;28;20044;-86
2021/04/02 00:45:20;;;;;;;6.88;1.65;;;;;;;;;;5067502;28;20093;-85
2021/04/02 00:47:52;;;;;;;7.38;1.48;;;;;;;;;;5067865;28;20053;-86
2021/04/02 00:50:24;;;;;;;4.13;1.40;;;;;;;;;;5068134;28;20041;-85
2021/04/02 00:52:50;;;;;;;6.10;1.40;;;;;;;;;;5051477;28;20112;-85
2021/04/02 00:55:16;;;;;;;5.78;1.75;;;;;;;;;;5052664;28;20136;-85
2021/04/02 00:57:42;;;;;;;4.93;1.50;;;;;;;;;;5067968;28;20154;-85
2021/04/02 01:00:09;;;;;;;2.40;1.10;;;;;;;;;;5067946;28;20037;-85
2021/04/02 01:02:35;;;;;;;7.35;2.03;;;;;;;;;;5067839;28;20041;-85
2021/04/02 01:05:01;;;;;;;6.57;1.73;;;;;;;;;;5067737;28;20388;-85
2021/04/02 01:07:28;;;;;;;7.05;2.08;;;;;;;;;;5051082;28;20344;-85
2021/04/02 01:09:54;;;;;;;7.05;1.60;;;;;;;;;;5067744;28;20041;-84
2021/04/02 01:12:20;;;;;;;3.72;1.27;;;;;;;;;;5034605;28;20144;-85
2021/04/02 01:14:46;;;;;;;5.38;2.25;;;;;;;;;;5052054;28;20064;-85
2021/04/02 01:17:12;;;;;;;4.85;1.52;;;;;;;;;;5067451;28;20091;-85
2021/04/02 01:19:39;;;;;;;4.85;1.67;;;;;;;;;;5067912;28;20044;-85
2021/04/02 01:22:07;;;;;;;7.15;1.77;;;;;;;;;;5051011;28;20119;-85
2021/04/02 01:24:42;;;;;;;6.18;1.70;;;;;;;;;;5052085;28;20056;-84
2021/04/02 01:27:10;;;;;;;7.13;1.63;;;;;;;;;;5051992;28;20128;-83
2021/04/02 01:29:54;;;;;;;8.77;2.33;;;;;;;;;;5052127;28;20117;-89
2021/04/02 01:32:24;;;;;;;5.10;1.88;;;;;;;;;;5051404;28;20041;-87
2021/04/02 01:34:50;;;;;;;10.32;2.08;;;;;;;;;;5034098;28;20037;-84
2021/04/02 01:37:37;;;;;;;7.28;2.08;;;;;;;;;;5067355;28;20087;-85
2021/04/02 01:40:05;;;;;;;9.35;2.42;;;;;;;;;;5051678;28;20111;-84
2021/04/02 01:42:31;;;;;;;6.63;2.38;;;;;;;;;;5051938;28;20381;-85
2021/04/02 01:44:57;;;;;;;3.90;1.77;;;;;;;;;;5067291;28;20040;-85
2021/04/02 01:47:23;;;;;;;7.40;2.50;;;;;;;;;;5062772;28;20052;-85
2021/04/02 01:49:49;;;;;;;12.70;2.72;;;;;;;;;;5070782;28;20052;-85
2021/04/02 01:52:15;;;;;;;4.47;2.17;;;;;;;;;;5070692;28;20042;-85
2021/04/02 01:54:42;;;;;;;5.80;2.25;;;;;;;;;;5071697;28;20037;-85
2021/04/02 01:57:08;;;;;;;4.35;1.95;;;;;;;;;;5070779;28;20392;-84
2021/04/02 01:59:35;;;;;;;7.63;2.00;;;;;;;;;;5074386;28;20115;-84
2021/04/02 02:02:01;;;;;;;3.75;1.52;;;;;;;;;;5074687;28;20090;-85
2021/04/02 02:04:27;;;;;;;6.13;1.85;;;;;;;;;;5074538;28;20040;-85
2021/04/02 02:06:54;;;;;;;6.50;1.90;;;;;;;;;;5074527;28;20040;-84
2021/04/02 02:09:29;;;;;;;5.80;1.95;;;;;;;;;;5074394;28;20032;-84
2021/04/02 02:11:56;;;;;;;4.95;1.48;;;;;;;;;;5075655;28;20040;-84
2021/04/02 02:14:22;;;;;;;10.00;2.03;;;;;;;;;;5074327;28;20227;-84
2021/04/02 02:16:49;;;;;;;8.68;2.00;;;;;;;;;;5074267;28;20494;-84
2021/04/02 02:19:16;;;;;;;9.00;1.75;;;;;;;;;;5075480;28;20044;-85
2021/04/02 02:21:42;;;;;;;3.97;1.55;;;;;;;;;;5074369;28;20508;-85
2021/04/02 02:24:09;;;;;;;5.72;1.73;;;;;;;;;;5074365;28;20534;-85
2021/04/02 02:26:35;;;;;;;4.82;1.67;;;;;;;;;;5074151;28;20052;-85
2021/04/02 02:29:01;;;;;;;5.47;1.60;;;;;;;;;;5074104;28;20045;-85
2021/04/02 02:31:29;;;;;;;4.90;1.50;;;;;;;;;;5074172;28;20353;-85
2021/04/02 02:33:55;;;;;;;6.78;1.63;;;;;;;;;;5075268;28;20040;-86
2021/04/02 02:36:21;;;;;;;6.85;1.65;;;;;;;;;;5073859;28;20558;-85
2021/04/02 02:38:47;;;;;;;6.55;1.50;;;;;;;;;;5073968;28;20033;-84
2021/04/02 02:41:13;;;;;;;7.53;1.73;;;;;;;;;;5075198;28;20111;-84
2021/04/02 02:43:39;;;;;;;5.55;1.45;;;;;;;;;;5073948;28;20032;-85
2021/04/02 02:46:05;;;;;;;8.10;2.00;;;;;;;;;;5075162;28;20040;-85
2021/04/02 02:48:31;;;;;;;4.63;1.60;;;;;;;;;;5095251;28;20036;-84
2021/04/02 02:50:57;;;;;;;4.55;1.60;;;;;;;;;;5094984;28;20081;-84
2021/04/02 02:53:24;;;;;;;6.05;2.13;;;;;;;;;;5077202;28;20111;-85
2021/04/02 02:55:50;;;;;;;7.93;1.50;;;;;;;;;;5094926;28;20044;-85
2021/04/02 02:58:17;;;;;;;4.07;1.40;;;;;;;;;;5077091;28;20039;-84
2021/04/02 03:00:44;;;;;;;6.70;1.88;;;;;;;;;;5095167;28;20043;-84
2021/04/02 03:03:15;;;;;;;6.38;1.80;;;;;;;;;;5095039;28;20032;-84
2021/04/02 03:05:43;;;;;;;4.80;1.90;;;;;;;;;;5060427;28;20130;-84
2021/04/02 03:08:09;;;;;;;5.88;2.08;;;;;;;;;;5076709;28;20036;-83
2021/04/02 03:10:35;;;;;;;5.13;1.90;;;;;;;;;;5076482;28;20081;-85
2021/04/02 03:13:01;;;;;;;7.35;1.70;;;;;;;;;;5094719;28;20031;-85
2021/04/02 03:15:27;;;;;;;6.10;1.63;;;;;;;;;;5076674;28;20093;-84
2021/04/02 03:18:01;;;;;;;5.25;2.00;;;;;;;;;;5060132;28;20032;-84
2021/04/02 03:20:27;;;;;;;8.13;1.63;;;;;;;;;;5076666;28;20036;-84
2021/04/02 03:22:53;;;;;;;7.75;2.00;;;;;;;;;;5076517;28;20218;-85
2021/04/02 03:25:21;;;;;;;3.90;1.40;;;;;;;;;;5076613;28;20039;-84
2021/04/02 03:27:47;;;;;;;6.70;1.65;;;;;;;;;;5076559;28;20113;-86
2021/04/02 03:30:18;;;;;;;8.23;2.08;;;;;;;;;;5076904;28;20044;-85
2021/04/02 03:32:45;;;;;;;7.45;1.90;;;;;;;;;;5094412;28;20032;-84
2021/04/02 03:35:11;;;;;;;4.30;1.50;;;;;;;;;;5076220;28;20109;-85
2021/04/02 03:37:38;;;;;;;4.55;1.38;;;;;;;;;;5059646;28;20044;-85
2021/04/02 03:40:11;;;;;;;4.93;1.33;;;;;;;;;;5076273;28;20162;-85
2021/04/02 03:42:37;;;;;;;7.63;1.50;;;;;;;;;;5076211;28;20036;-86
2021/04/02 03:45:04;;;;;;;10.05;1.50;;;;;;;;;;5076072;28;20108;-85
2021/04/02 03:47:30;;;;;;;9.40;1.88;;;;;;;;;;5059267;28;20050;-85
2021/04/02 03:49:56;;;;;;;4.45;1.42;;;;;;;;;;5059350;28;20499;-85
2021/04/02 03:52:25;;;;;;;7.13;1.60;;;;;;;;;;5093990;28;20032;-85
2021/04/02 03:54:51;;;;;;;6.90;1.40;;;;;;;;;;5075948;28;20581;-85
2021/04/02 03:57:18;;;;;;;6.82;1.50;;;;;;;;;;5059355;28;20039;-84
2021/04/02 03:59:44;;;;;;;7.53;2.08;;;;;;;;;;5093881;28;20105;-85
2021/04/02 04:02:10;;;;;;;9.23;1.80;;;;;;;;;;5075824;28;20043;-85
2021/04/02 04:04:36;;;;;;;3.13;1.33;;;;;;;;;;5075730;28;20449;-85
2021/04/02 04:07:03;;;;;;;6.95;1.38;;;;;;;;;;5075653;28;20035;-86
2021/04/02 04:09:29;;;;;;;5.72;1.40;;;;;;;;;;5093635;28;20115;-85
2021/04/02 04:11:56;;;;;;;7.55;1.30;;;;;;;;;;5075490;28;20514;-84
2021/04/02 04:14:22;;;;;;;11.27;1.60;;;;;;;;;;5075496;28;20070;-85
2021/04/02 04:16:48;;;;;;;6.05;1.60;;;;;;;;;;5075617;28;20039;-84
2021/04/02 04:19:15;;;;;;;8.43;1.40;;;;;;;;;;5075720;28;20048;-85
2021/04/02 04:21:42;;;;;;;8.00;1.40;;;;;;;;;;5057887;28;20040;-85
2021/04/02 04:24:08;;;;;;;2.67;1.00;;;;;;;;;;5075387;28;20426;-85
2021/04/02 04:26:34;;;;;;;5.85;1.83;;;;;;;;;;5075350;28;20115;-84
2021/04/02 04:29:01;;;;;;;7.93;1.13;;;;;;;;;;5075267;28;20044;-84
2021/04/02 04:31:28;;;;;;;6.15;1.70;;;;;;;;;;5075453;28;20067;-84
2021/04/02 04:33:55;;;;;;;6.18;1.38;;;;;;;;;;5093419;28;20036;-85
2021/04/02 04:36:21;;;;;;;5.10;1.42;;;;;;;;;;5075275;28;20051;-85
2021/04/02 04:38:47;;;;;;;6.55;1.25;;;;;;;;;;5075477;28;20440;-84
2021/04/02 04:41:13;;;;;;;11.10;1.60;;;;;;;;;;5074972;28;20032;-85
2021/04/02 04:43:39;;;;;;;3.97;1.35;;;;;;;;;;5074991;28;20028;-85
2021/04/02 04:46:05;;;;;;;7.40;2.08;;;;;;;;;;5058136;28;20093;-85
2021/04/02 04:48:31;;;;;;;3.80;1.50;;;;;;;;;;5075078;28;20036;-85
2021/04/02 04:50:58;;;;;;;7.30;1.77;;;;;;;;;;5058372;28;20070;-85
2021/04/02 04:53:27;;;;;;;4.68;1.30;;;;;;;;;;5058320;28;20188;-83
2021/04/02 04:55:53;;;;;;;8.50;1.40;;;;;;;;;;5074577;28;20066;-84
2021/04/02 04:58:20;;;;;;;7.90;1.73;;;;;;;;;;5074976;28;20040;-85
2021/04/02 05:00:46;;;;;;;4.75;1.67;;;;;;;;;;5058096;28;20111;-85
2021/04/02 05:03:13;;;;;;;6.60;1.60;;;;;;;;;;5058081;28;20270;-85
2021/04/02 05:05:40;;;;;;;3.60;1.50;;;;;;;;;;5074376;28;20036;-85
2021/04/02 05:08:07;;;;;;;5.97;1.55;;;;;;;;;;5074687;28;20124;-85
2021/04/02 05:10:33;;;;;;;4.32;1.40;;;;;;;;;;5074544;28;20042;-85
2021/04/02 05:12:59;;;;;;;8.02;1.80;;;;;;;;;;5074592;28;20063;-85
2021/04/02 05:15:25;;;;;;;4.80;1.25;;;;;;;;;;5074432;28;20418;-85
2021/04/02 05:17:51;;;;;;;7.53;1.52;;;;;;;;;;5074698;28;20032;-84
2021/04/02 05:20:17;;;;;;;4.95;1.38;;;;;;;;;;5074500;28;20101;-85
2021/04/02 05:22:43;;;;;;;7.50;1.23;;;;;;;;;;5074552;28;20067;-84
2021/04/02 05:25:10;;;;;;;6.95;2.13;;;;;;;;;;5057595;28;20044;-84
2021/04/02 05:27:36;;;;;;;4.95;1.73;;;;;;;;;;5092276;28;20142;-84
2021/04/02 05:30:02;;;;;;;7.95;2.72;;;;;;;;;;5092325;28;20487;-84
2021/04/02 05:32:30;;;;;;;6.15;1.30;;;;;;;;;;5057917;28;20114;-84
2021/04/02 05:34:56;;;;;;;5.20;1.40;;;;;;;;;;5057634;28;20115;-84
2021/04/02 05:37:22;;;;;;;9.65;1.65;;;;;;;;;;5074538;28;20044;-83
2021/04/02 05:39:48;;;;;;;5.63;1.67;;;;;;;;;;5074066;28;20148;-84
2021/04/02 05:42:15;;;;;;;4.00;1.10;;;;;;;;;;5074175;28;20495;-85
2021/04/02 05:44:41;;;;;;;4.93;1.50;;;;;;;;;;5074127;28;20059;-85
2021/04/02 05:47:08;;;;;;;5.85;1.30;;;;;;;;;;5074087;28;20048;-82
2021/04/02 05:49:34;;;;;;;8.20;1.38;;;;;;;;;;5074517;28;20063;-84
2021/04/02 05:52:00;;;;;;;4.45;1.00;;;;;;;;;;5074230;28;20061;-86
2021/04/02 05:54:30;;;;;;;3.65;1.27;;;;;;;;;;5074170;28;20085;-94
2021/04/02 05:56:56;;;;;;;5.80;1.27;;;;;;;;;;5058297;28;20107;-89
2021/04/02 05:59:22;;;;;;;9.18;1.13;;;;;;;;;;5057490;28;20094;-89
2021/04/02 06:01:49;;;;;;;6.85;1.30;;;;;;;;;;5057422;28;20101;-89
2021/04/02 06:04:15;;;;;;;5.40;1.30;;;;;;;;;;5074445;28;20064;-89
2021/04/02 06:06:41;;;;;;;3.90;1.30;;;;;;;;;;5074823;28;20036;-92
2021/04/02 06:09:07;;;;;;;8.27;1.23;;;;;;;;;;5074598;28;20129;-90
2021/04/02 06:11:33;;;;;;;3.42;1.13;;;;;;;;;;5057998;28;20036;-85
2021/04/02 06:13:59;;;;;;;5.45;1.55;;;;;;;;;;5073886;28;20032;-84
2021/04/02 06:16:25;;;;;;;7.07;1.40;;;;;;;;;;5074052;28;20044;-83
2021/04/02 06:18:56;;;;;;;9.00;1.30;;;;;;;;;;5092135;28;20048;-83
2021/04/02 06:21:27;;;;;;;22.10;2.13;;;;;;;;;;5091605;28;20040;-86
2021/04/02 06:23:53;;;;;;;3.97;1.48;;;;;;;;;;5074121;28;20038;-84
2021/04/02 06:26:20;;;;;;;8.43;1.40;;;;;;;;;;5057112;28;20188;-85
2021/04/02 06:28:46;;;;;;;8.13;1.23;;;;;;;;;;5057120;28;20036;-84
2021/04/02 06:31:13;;;;;;;8.90;1.90;;;;;;;;;;5057253;28;20100;-84
2021/04/02 06:33:42;;;;;;;8.25;1.80;;;;;;;;;;5073946;28;20036;-84
2021/04/02 06:36:18;;;;;;;6.97;1.50;;;;;;;;;;5073674;28;20118;-86
2021/04/02 06:38:45;;;;;;;9.77;1.40;;;;;;;;;;5091565;28;20032;-87
2021/04/02 06:41:11;;;;;;;8.77;2.22;;;;;;;;;;5091577;28;20064;-86
2021/04/02 06:43:41;;;;;;;6.97;1.63;;;;;;;;;;5091873;28;20039;-84
2021/04/02 06:46:12;;;;;;;9.60;1.75;;;;;;;;;;5077685;28;20043;-84
2021/04/02 06:48:37;;;;;;;9.52;1.60;;;;;;;;;;5060591;28;20047;-83
2021/04/02 06:51:04;;;;;;;9.38;1.80;;;;;;;;;;5043645;28;20040;-84
2021/04/02 06:53:31;;;;;;;5.38;1.25;;;;;;;;;;5077104;28;20038;-83
2021/04/02 06:55:58;;;;;;;8.20;1.35;;;;;;;;;;5060411;28;20044;-83
2021/04/02 06:58:23;;;;;;;7.13;1.38;;;;;;;;;;5077214;28;20403;-82
2021/04/02 07:00:51;;;;;;;8.27;1.52;;;;;;;;;;5077821;28;20036;-83
2021/04/02 07:03:17;;;;;;;6.75;1.60;;;;;;;;;;5060070;28;20056;-83
2021/04/02 07:05:43;;;;;;;7.43;1.50;;;;;;;;;;5076956;28;20093;-83
2021/04/02 07:08:09;;;;;;;10.23;2.00;;;;;;;;;;5060251;28;20107;-87
2021/04/02 07:10:39;;;;;;;9.20;2.22;;;;;;;;;;5060129;28;20531;-85
2021/04/02 07:13:06;;;;;;;10.88;2.20;;;;;;;;;;5060352;28;20105;-85
2021/04/02 07:15:32;;;;;;;7.97;1.55;;;;;;;;;;5076481;28;20127;-85
2021/04/02 07:17:59;;;;;;;8.57;1.70;;;;;;;;;;5060128;28;20252;-85
2021/04/02 07:20:25;;;;;;;11.70;1.52;;;;;;;;;;5059940;28;20051;-81
2021/04/02 07:22:51;;;;;;;7.28;1.75;;;;;;;;;;5076569;28;20032;-84
2021/04/02 07:25:17;;;;;;;5.10;1.63;;;;;;;;;;5076532;28;20430;-87
2021/04/02 07:27:43;;;;;;;7.38;1.50;;;;;;;;;;5076499;28;20089;-84
2021/04/02 07:30:10;;;;;;;7.13;1.50;;;;;;;;;;5076345;28;20090;-82
2021/04/02 07:32:36;;;;;;;11.57;2.22;;;;;;;;;;5059713;28;20062;-81
2021/04/02 07:35:03;;;;;;;3.03;1.60;;;;;;;;;;5076283;28;20040;-82
2021/04/02 07:37:38;;;;;;;8.73;1.60;;;;;;;;;;5059220;28;20052;-82
2021/04/02 07:40:11;;;;;;;9.27;2.05;;;;;;;;;;5076299;28;20042;-81
2021/04/02 07:42:38;;;;;;;5.05;1.80;;;;;;;;;;5076187;28;20541;-82
2021/04/02 07:45:07;;;;;;;5.80;1.30;;;;;;;;;;5094063;28;20039;-82
2021/04/02 07:47:34;;;;;;;6.18;1.60;;;;;;;;;;5076021;28;20052;-82
2021/04/02 07:50:02;;;;;;;9.23;1.95;;;;;;;;;;5076142;28;20568;-82
2021/04/02 07:52:32;;;;;;;7.03;1.67;;;;;;;;;;5059649;28;20069;-82
2021/04/02 07:55:05;;;;;;;7.05;1.67;;;;;;;;;;5076380;28;20123;-82
2021/04/02 07:57:32;;;;;;;7.63;2.25;;;;;;;;;;5076031;28;20071;-83
2021/04/02 07:59:58;;;;;;;7.78;1.88;;;;;;;;;;5076093;28;20045;-82
2021/04/02 08:02:30;;;;;;;7.07;1.73;;;;;;;;;;5075888;28;20058;-83
2021/04/02 08:04:57;;;;;;;6.32;1.65;;;;;;;;;;5093649;28;20504;-81
2021/04/02 08:07:33;;;;;;;13.50;2.60;;;;;;;;;;5075859;28;20040;-82
2021/04/02 08:10:02;;;;;;;8.23;1.83;;;;;;;;;;5059126;28;20040;-82
2021/04/02 08:12:29;;;;;;;7.85;1.65;;;;;;;;;;5059024;28;20044;-82
2021/04/02 08:14:57;;;;;;;12.50;1.88;;;;;;;;;;5075548;28;20169;-82
2021/04/02 08:17:26;;;;;;;5.57;1.55;;;;;;;;;;5075471;28;20044;-82
2021/04/02 08:19:52;;;;;;;8.43;1.40;;;;;;;;;;5075503;28;20058;-82
2021/04/02 08:22:19;;;;;;;7.22;1.75;;;;;;;;;;5058667;28;20036;-83
2021/04/02 08:24:48;;;;;;;4.63;1.20;;;;;;;;;;5093378;28;20108;-82
2021/04/02 08:27:14;;;;;;;7.20;1.98;;;;;;;;;;5058768;28;20467;-82
2021/04/02 08:29:41;;;;;;;7.82;1.45;;;;;;;;;;5075293;28;20040;-82
2021/04/02 08:32:11;;;;;;;6.10;1.50;;;;;;;;;;5075273;28;20058;-82
2021/04/02 08:34:37;;;;;;;9.30;2.22;;;;;;;;;;5093062;28;20445;-83
2021/04/02 08:37:05;;;;;;;6.18;1.58;;;;;;;;;;5093017;28;20409;-80
2021/04/02 08:39:31;;;;;;;6.55;1.45;;;;;;;;;;5058632;28;20040;-82
2021/04/02 08:42:02;;;;;;;7.13;1.52;;;;;;;;;;5075095;28;20071;-82
2021/04/02 08:44:32;;;;;;;10.63;2.03;;;;;;;;;;5074813;28;20036;-84
2021/04/02 08:47:01;;;;;;;12.75;2.25;;;;;;;;;;5074856;28;20056;-83
2021/04/02 08:49:28;;;;;;;7.60;1.50;;;;;;;;;;5092947;28;20032;-82
2021/04/02 08:51:54;;;;;;;9.45;1.73;;;;;;;;;;5074915;28;20036;-82
2021/04/02 08:54:20;;;;;;;4.25;1.63;;;;;;;;;;5074751;28;20063;-82
2021/04/02 08:56:47;;;;;;;11.90;1.92;;;;;;;;;;5074784;28;20040;-83
2021/04/02 08:59:13;;;;;;;3.28;1.40;;;;;;;;;;5058533;28;20044;-82
2021/04/02 09:01:41;;;;;;;6.13;1.60;;;;;;;;;;5074706;28;20111;-82
2021/04/02 09:04:07;;;;;;;6.85;1.98;;;;;;;;;;5074843;28;20028;-82
2021/04/02 09:06:33;;;;;;;7.82;1.58;;;;;;;;;;5074350;28;20078;-82
2021/04/02 09:09:00;;;;;;;9.60;1.88;;;;;;;;;;5074671;28;20036;-83
2021/04/02 09:11:26;;;;;;;7.32;1.80;;;;;;;;;;5057978;28;20074;-82
2021/04/02 09:13:52;;;;;;;6.63;1.80;;;;;;;;;;5074661;28;20074;-83
2021/04/02 09:16:20;;;;;;;14.20;1.80;;;;;;;;;;5092202;28;20082;-82
2021/04/02 09:18:57;;;;;;;7.57;2.03;;;;;;;;;;5074563;28;20132;-83
2021/04/02 09:21:23;;;;;;;9.05;1.50;;;;;;;;;;5092357;28;20036;-82
2021/04/02 09:23:50;;;;;;;6.97;1.73;;;;;;;;;;5074489;28;20032;-82
2021/04/02 09:26:16;;;;;;;6.53;1.17;;;;;;;;;;5092264;28;20059;-83
2021/04/02 09:28:42;;;;;;;5.55;1.20;;;;;;;;;;5092402;28;20044;-82
2021/04/02 09:31:21;;;;;;;6.72;1.60;;;;;;;;;;5074323;28;20044;-83
2021/04/02 09:33:48;;;;;;;9.75;1.75;;;;;;;;;;5074489;28;20040;-82
2021/04/02 09:36:15;;;;;;;6.88;1.25;;;;;;;;;;5074257;28;20036;-82
2021/04/02 09:38:42;;;;;;;6.32;1.13;;;;;;;;;;5092168;28;20395;-83
2021/04/02 09:41:08;;;;;;;6.20;1.42;;;;;;;;;;5057498;28;20483;-82
2021/04/02 09:43:41;;;;;;;6.38;1.70;;;;;;;;;;5057587;28;20487;-82
2021/04/02 09:46:07;;;;;;;10.48;1.50;;;;;;;;;;5057574;28;20052;-83
2021/04/02 09:48:37;;;;;;;9.60;1.35;;;;;;;;;;5092268;28;20040;-82
2021/04/02 09:51:04;;;;;;;9.00;1.67;;;;;;;;;;5092235;28;20062;-82
2021/04/02 09:53:30;;;;;;;7.50;1.42;;;;;;;;;;5074299;28;20115;-82
2021/04/02 09:55:56;;;;;;;7.28;1.42;;;;;;;;;;5091795;28;20089;-82
2021/04/02 09:58:22;;;;;;;7.18;1.60;;;;;;;;;;5092184;28;20036;-83
2021/04/02 10:00:48;;;;;;;7.20;1.35;;;;;;;;;;5091984;28;20036;-83
2021/04/02 10:03:14;;;;;;;7.90;1.52;;;;;;;;;;5091987;28;20059;-82
2021/04/02 10:05:40;;;;;;;7.45;1.30;;;;;;;;;;5091888;28;20048;-81
2021/04/02 10:08:07;;;;;;;9.82;1.48;;;;;;;;;;5074075;28;20043;-83
2021/04/02 10:10:33;;;;;;;12.52;2.38;;;;;;;;;;5074078;28;20510;-82
2021/04/02 10:12:59;;;;;;;8.80;1.40;;;;;;;;;;5057442;28;20043;-82
2021/04/02 10:15:25;;;;;;;11.60;1.58;;;;;;;;;;5073691;28;20547;-82
2021/04/02 10:17:51;;;;;;;9.55;1.45;;;;;;;;;;5073919;28;20111;-82
2021/04/02 10:20:18;;;;;;;11.00;1.70;;;;;;;;;;5095015;28;20036;-82
2021/04/02 10:22:44;;;;;;;11.15;1.33;;;;;;;;;;5061123;28;20028;-82
2021/04/02 10:25:10;;;;;;;9.32;2.45;;;;;;;;;;5077568;28;20036;-83
2021/04/02 10:27:36;;;;;;;8.25;1.60;;;;;;;;;;5095915;28;20042;-82
2021/04/02 10:30:02;;;;;;;10.73;1.83;;;;;;;;;;5077638;28;20415;-81
2021/04/02 10:32:28;;;;;;;8.05;1.73;;;;;;;;;;5077770;28;20459;-83
2021/04/02 10:34:54;;;;;;;12.63;1.77;;;;;;;;;;5095514;28;20512;-83
2021/04/02 10:37:20;;;;;;;9.57;1.58;;;;;;;;;;5095404;28;20032;-82
2021/04/02 10:39:47;;;;;;;10.38;1.77;;;;;;;;;;5077432;28;20090;-83
2021/04/02 10:42:13;;;;;;;9.65;1.90;;;;;;;;;;5077454;28;20040;-82
2021/04/02 10:44:39;;;;;;;10.38;1.50;;;;;;;;;;5077297;28;20036;-82
2021/04/02 10:47:05;;;;;;;7.35;1.50;;;;;;;;;;5077319;28;20073;-82
2021/04/02 10:49:31;;;;;;;9.98;1.50;;;;;;;;;;5077187;28;20368;-82
2021/04/02 10:51:57;;;;;;;7.40;1.63;;;;;;;;;;5095094;28;20047;-83
2021/04/02 10:54:23;;;;;;;9.23;1.60;;;;;;;;;;5076827;28;20039;-82
2021/04/02 10:56:49;;;;;;;8.38;1.73;;;;;;;;;;5060457;28;20040;-82
2021/04/02 10:59:15;;;;;;;7.60;1.33;;;;;;;;;;5077063;28;20403;-83
2021/04/02 11:01:41;;;;;;;9.45;1.63;;;;;;;;;;5077033;28;20040;-82
2021/04/02 11:04:07;;;;;;;6.78;1.35;;;;;;;;;;5077166;28;20043;-83
2021/04/02 11:06:33;;;;;;;7.32;1.40;;;;;;;;;;5094943;28;20444;-82
2021/04/02 11:08:59;;;;;;;6.13;1.48;;;;;;;;;;5094714;28;20043;-82
2021/04/02 11:11:25;;;;;;;7.43;1.40;;;;;;;;;;5076912;28;20044;-81
2021/04/02 11:13:51;;;;;;;5.97;1.10;;;;;;;;;;5076832;28;20038;-82
2021/04/02 11:16:17;;;;;;;7.45;1.40;;;;;;;;;;5094506;28;20036;-82
2021/04/02 11:18:46;;;;;;;8.75;1.30;;;;;;;;;;5076518;28;20147;-81
2021/04/02 11:21:12;;;;;;;10.15;1.20;;;;;;;;;;5060394;28;20028;-82
2021/04/02 11:23:38;;;;;;;8.25;1.20;;;;;;;;;;5059971;28;20040;-83
2021/04/02 11:26:04;;;;;;;4.03;1.35;;;;;;;;;;5076282;28;20131;-82
2021/04/02 11:28:30;;;;;;;9.20;1.63;;;;;;;;;;5075991;28;20484;-81
2021/04/02 11:30:56;;;;;;;6.03;1.30;;;;;;;;;;5076161;28;20094;-82
2021/04/02 11:33:22;;;;;;;7.80;1.42;;;;;;;;;;5076308;28;20086;-83
2021/04/02 11:35:48;;;;;;;6.97;1.52;;;;;;;;;;5059459;28;20043;-83
2021/04/02 11:38:14;;;;;;;9.07;1.58;;;;;;;;;;5094191;28;20040;-82
2021/04/02 11:40:42;;;;;;;5.63;1.52;;;;;;;;;;5076688;28;20093;-82
2021/04/02 11:43:08;;;;;;;5.15;1.60;;;;;;;;;;5094443;28;20042;-82
2021/04/02 11:45:34;;;;;;;7.30;1.23;;;;;;;;;;5075624;28;20068;-82
2021/04/02 11:48:00;;;;;;;4.30;1.20;;;;;;;;;;5093937;28;20079;-82
2021/04/02 11:50:26;;;;;;;6.32;1.38;;;;;;;;;;5094068;28;20395;-82
2021/04/02 11:52:52;;;;;;;3.65;1.00;;;;;;;;;;5093885;28;20040;-82
2021/04/02 11:55:18;;;;;;;8.85;1.48;;;;;;;;;;5058895;28;20051;-82
2021/04/02 11:57:44;;;;;;;6.57;1.58;;;;;;;;;;5093861;28;20043;-81
2021/04/02 12:00:11;;;;;;;8.75;1.42;;;;;;;;;;5094050;28;20110;-82
2021/04/02 12:02:37;;;;;;;5.50;1.30;;;;;;;;;;5075994;28;20089;-83
2021/04/02 12:05:04;;;;;;;5.90;1.65;;;;;;;;;;5093643;28;20036;-83
2021/04/02 12:07:30;;;;;;;6.07;1.50;;;;;;;;;;5059139;28;20051;-81
2021/04/02 12:09:56;;;;;;;5.97;1.38;;;;;;;;;;5075773;28;20118;-82
2021/04/02 12:12:22;;;;;;;5.75;1.50;;;;;;;;;;5075618;28;20032;-83
2021/04/02 12:14:48;;;;;;;6.28;1.65;;;;;;;;;;5093538;28;20032;-83
2021/04/02 12:17:14;;;;;;;8.13;1.95;;;;;;;;;;5075530;28;20040;-82
2021/04/02 12:19:40;;;;;;;7.90;1.67;;;;;;;;;;5093557;28;20036;-82
2021/04/02 12:22:07;;;;;;;9.98;1.58;;;;;;;;;;5075475;28;20028;-82
2021/04/02 12:24:33;;;;;;;5.85;1.50;;;;;;;;;;5093316;28;20085;-81
2021/04/02 12:26:59;;;;;;;19.05;2.25;;;;;;;;;;5093351;28;20437;-83
2021/04/02 12:29:25;;;;;;;7.72;1.45;;;;;;;;;;5075228;28;20047;-82
2021/04/02 12:31:51;;;;;;;13.50;1.60;;;;;;;;;;5093360;28;20063;-83
2021/04/02 12:34:17;;;;;;;8.98;1.85;;;;;;;;;;5075065;28;20503;-83
2021/04/02 12:36:43;;;;;;;6.10;1.50;;;;;;;;;;5058616;28;20040;-81
2021/04/02 12:39:09;;;;;;;4.82;1.20;;;;;;;;;;5093138;28;20444;-83
2021/04/02 12:41:37;;;;;;;9.95;1.42;;;;;;;;;;5074588;28;20085;-82
2021/04/02 12:44:03;;;;;;;5.13;1.23;;;;;;;;;;5093017;28;20039;-83
2021/04/02 12:46:29;;;;;;;4.47;1.05;;;;;;;;;;5092874;28;20076;-83
2021/04/02 12:48:55;;;;;;;7.63;1.00;;;;;;;;;;5092919;28;20047;-81
2021/04/02 12:51:21;;;;;;;6.82;1.00;;;;;;;;;;5074955;28;20090;-80
2021/04/02 12:53:47;;;;;;;3.08;1.17;;;;;;;;;;5092878;28;20093;-83
2021/04/02 12:56:13;;;;;;;4.15;1.00;;;;;;;;;;5058330;28;20039;-83
2021/04/02 12:58:39;;;;;;;3.40;1.20;;;;;;;;;;5074807;28;20073;-82
2021/04/02 13:01:06;;;;;;;9.00;1.10;;;;;;;;;;5074795;28;20499;-82
2021/04/02 13:03:33;;;;;;;5.60;1.10;;;;;;;;;;5092596;28;20043;-82
2021/04/02 13:05:59;;;;;;;9.02;1.00;;;;;;;;;;5074742;28;20044;-82
2021/04/02 13:08:25;;;;;;;3.85;1.00;;;;;;;;;;5074685;28;20040;-82
2021/04/02 13:10:51;;;;;;;3.80;1.05;;;;;;;;;;5092621;28;20480;-82
2021/04/02 13:13:17;;;;;;;2.83;0.90;;;;;;;;;;5074680;28;20038;-82
2021/04/02 13:15:43;;;;;;;2.33;0.88;;;;;;;;;;5058323;28;20039;-82
2021/04/02 13:18:09;;;;;;;6.05;1.42;;;;;;;;;;5074380;28;20044;-82
2021/04/02 13:20:35;;;;;;;3.85;1.48;;;;;;;;;;5074573;28;20040;-82
2021/04/02 13:23:02;;;;;;;6.18;1.25;;;;;;;;;;5092483;28;20036;-83
2021/04/02 13:25:31;;;;;;;2.60;1.02;;;;;;;;;;5092341;28;20450;-82
2021/04/02 13:27:57;;;;;;;7.35;1.23;;;;;;;;;;5058131;28;20147;-82
2021/04/02 13:30:23;;;;;;;3.38;0.95;;;;;;;;;;5074406;28;20093;-82
2021/04/02 13:32:50;;;;;;;7.47;1.40;;;;;;;;;;5074457;28;20050;-82
2021/04/02 13:35:20;;;;;;;3.75;1.35;;;;;;;;;;5092393;28;20474;-83
2021/04/02 13:37:46;;;;;;;5.20;1.27;;;;;;;;;;5074523;28;20044;-82
2021/04/02 13:40:12;;;;;;;8.23;1.73;;;;;;;;;;5074353;28;20036;-82
2021/04/02 13:42:39;;;;;;;6.53;1.17;;;;;;;;;;5074260;28;20036;-82
2021/04/02 13:45:06;;;;;;;8.40;1.60;;;;;;;;;;5074185;28;20127;-82
2021/04/02 13:47:32;;;;;;;3.95;1.05;;;;;;;;;;5074175;28;20084;-82
2021/04/02 13:49:58;;;;;;;4.32;1.00;;;;;;;;;;5074255;28;20063;-82
2021/04/02 13:52:24;;;;;;;5.80;0.95;;;;;;;;;;5074181;28;20432;-82
2021/04/02 13:54:50;;;;;;;6.53;1.23;;;;;;;;;;5096451;28;20043;-83
2021/04/02 13:57:16;;;;;;;5.03;1.08;;;;;;;;;;5078459;28;20040;-82
2021/04/02 13:59:42;;;;;;;4.95;0.90;;;;;;;;;;5061420;28;20040;-81
2021/04/02 14:02:09;;;;;;;4.00;0.90;;;;;;;;;;5096196;28;20042;-83
2021/04/02 14:04:35;;;;;;;5.22;1.25;;;;;;;;;;5077987;28;20043;-82
2021/04/02 14:07:01;;;;;;;3.28;0.90;;;;;;;;;;5078134;28;20134;-82
2021/04/02 14:09:27;;;;;;;8.15;1.38;;;;;;;;;;5096016;28;20051;-82
2021/04/02 14:11:53;;;;;;;8.10;1.50;;;;;;;;;;5095950;28;20032;-81
2021/04/02 14:14:19;;;;;;;3.85;1.10;;;;;;;;;;5077910;28;20043;-82
2021/04/02 14:16:45;;;;;;;5.38;1.23;;;;;;;;;;5077688;28;20044;-81
2021/04/02 14:19:12;;;;;;;6.97;1.63;;;;;;;;;;5077981;28;20252;-82
2021/04/02 14:21:40;;;;;;;5.85;1.25;;;;;;;;;;5077867;28;20036;-82
2021/04/02 14:24:06;;;;;;;5.40;1.38;;;;;;;;;;5061265;28;20423;-82
2021/04/02 14:26:32;;;;;;;5.07;1.10;;;;;;;;;;5095719;28;20032;-81
2021/04/02 14:28:58;;;;;;;6.43;1.65;;;;;;;;;;5077609;28;20064;-83
2021/04/02 14:31:24;;;;;;;7.32;1.80;;;;;;;;;;5095619;28;20113;-82
2021/04/02 14:33:50;;;;;;;7.97;1.98;;;;;;;;;;5095779;28;20459;-82
2021/04/02 14:36:16;;;;;;;6.45;1.30;;;;;;;;;;5095343;28;20040;-83
2021/04/02 14:38:42;;;;;;;4.93;1.50;;;;;;;;;;5060861;28;20040;-82
2021/04/02 14:41:08;;;;;;;7.45;1.60;;;;;;;;;;5077490;28;20566;-82